sensor_id;sensor_type;location;lat;lon;timestamp;P1;durP1;ratioP1;P2;durP2;ratioP2
74630;SDS011;63138;55.082;38.804;2022-10-16T00:02:06;7.13;;;2.92;;
74630;SDS011;63138;55.082;38.804;2022-10-16T00:04:32;5.03;;;2.85;;
74630;SDS011;63138;55.082;38.804;2022-10-16T00:06:58;5.83;;;2.90;;
74630;SDS011;63138;55.082;38.804;2022-10-16T00:09:24;5.40;;;3.60;;
74630;SDS011;63138;55.082;38.804;2022-10-16T00:11:49;8.00;;;3.10;;
74630;SDS011;63138;55.082;38.804;2022-10-16T00:14:15;6.88;;;3.35;;
74630;SDS011;63138;55.082;38.804;2022-10-16T00:16:41;5.27;;;3.37;;
74630;SDS011;63138;55.082;38.804;2022-10-16T00:19:07;4.45;;;2.80;;
74630;SDS011;63138;55.082;38.804;2022-10-16T00:21:35;5.88;;;3.70;;
74630;SDS011;63138;55.082;38.804;2022-10-16T00:24:20;7.07;;;4.40;;
74630;SDS011;63138;55.082;38.804;2022-10-16T00:26:45;8.20;;;4.73;;
74630;SDS011;63138;55.082;38.804;2022-10-16T00:29:15;6.32;;;3.28;;
74630;SDS011;63138;55.082;38.804;2022-10-16T00:31:40;6.33;;;3.00;;
74630;SDS011;63138;55.082;38.804;2022-10-16T00:34:06;5.03;;;3.20;;
74630;SDS011;63138;55.082;38.804;2022-10-16T00:36:32;7.53;;;3.83;;
74630;SDS011;63138;55.082;38.804;2022-10-16T00:38:57;7.43;;;3.75;;
74630;SDS011;63138;55.082;38.804;2022-10-16T00:41:26;7.13;;;3.75;;
74630;SDS011;63138;55.082;38.804;2022-10-16T00:43:56;4.90;;;3.00;;
74630;SDS011;63138;55.082;38.804;2022-10-16T00:46:25;5.33;;;2.80;;
74630;SDS011;63138;55.082;38.804;2022-10-16T00:51:28;11.20;;;7.50;;
74630;SDS011;63138;55.082;38.804;2022-10-16T00:53:58;11.20;;;7.93;;
74630;SDS011;63138;55.082;38.804;2022-10-16T00:56:25;8.73;;;4.85;;
74630;SDS011;63138;55.082;38.804;2022-10-16T00:58:51;9.27;;;3.73;;
74630;SDS011;63138;55.082;38.804;2022-10-16T01:01:17;5.55;;;3.00;;
74630;SDS011;63138;55.082;38.804;2022-10-16T01:03:44;5.85;;;3.42;;
74630;SDS011;63138;55.082;38.804;2022-10-16T01:06:21;5.88;;;2.83;;
74630;SDS011;63138;55.082;38.804;2022-10-16T01:11:33;5.83;;;2.70;;
74630;SDS011;63138;55.082;38.804;2022-10-16T01:14:32;4.95;;;2.78;;
74630;SDS011;63138;55.082;38.804;2022-10-16T01:17:00;5.20;;;3.03;;
74630;SDS011;63138;55.082;38.804;2022-10-16T01:22:24;4.90;;;3.10;;
74630;SDS011;63138;55.082;38.804;2022-10-16T01:24:56;8.10;;;3.05;;
74630;SDS011;63138;55.082;38.804;2022-10-16T01:27:30;4.85;;;2.53;;
74630;SDS011;63138;55.082;38.804;2022-10-16T01:30:10;7.80;;;3.90;;
74630;SDS011;63138;55.082;38.804;2022-10-16T01:36:05;4.70;;;3.23;;
74630;SDS011;63138;55.082;38.804;2022-10-16T01:38:27;4.72;;;2.67;;
74630;SDS011;63138;55.082;38.804;2022-10-16T01:41:00;5.20;;;3.15;;
74630;SDS011;63138;55.082;38.804;2022-10-16T01:43:36;9.60;;;5.55;;
74630;SDS011;63138;55.082;38.804;2022-10-16T01:46:09;6.75;;;4.40;;
74630;SDS011;63138;55.082;38.804;2022-10-16T01:48:36;10.17;;;5.10;;
74630;SDS011;63138;55.082;38.804;2022-10-16T01:51:04;11.32;;;5.20;;
74630;SDS011;63138;55.082;38.804;2022-10-16T01:53:33;10.38;;;6.35;;
74630;SDS011;63138;55.082;38.804;2022-10-16T01:56:00;15.35;;;5.75;;
74630;SDS011;63138;55.082;38.804;2022-10-16T01:58:30;11.60;;;6.55;;
74630;SDS011;63138;55.082;38.804;2022-10-16T02:01:03;10.03;;;5.43;;
74630;SDS011;63138;55.082;38.804;2022-10-16T02:03:30;8.95;;;5.40;;
74630;SDS011;63138;55.082;38.804;2022-10-16T02:05:58;6.53;;;3.90;;
74630;SDS011;63138;55.082;38.804;2022-10-16T02:08:25;9.27;;;3.97;;
74630;SDS011;63138;55.082;38.804;2022-10-16T02:10:54;6.80;;;3.73;;
74630;SDS011;63138;55.082;38.804;2022-10-16T02:15:52;6.40;;;3.50;;
74630;SDS011;63138;55.082;38.804;2022-10-16T02:18:20;7.95;;;3.22;;
74630;SDS011;63138;55.082;38.804;2022-10-16T02:23:24;7.03;;;3.80;;
74630;SDS011;63138;55.082;38.804;2022-10-16T02:26:07;7.40;;;4.05;;
74630;SDS011;63138;55.082;38.804;2022-10-16T02:28:42;8.88;;;4.13;;
74630;SDS011;63138;55.082;38.804;2022-10-16T02:31:13;7.28;;;3.75;;
74630;SDS011;63138;55.082;38.804;2022-10-16T02:33:43;7.95;;;3.75;;
74630;SDS011;63138;55.082;38.804;2022-10-16T02:36:11;5.83;;;3.23;;
74630;SDS011;63138;55.082;38.804;2022-10-16T02:38:37;6.55;;;3.72;;
74630;SDS011;63138;55.082;38.804;2022-10-16T02:41:05;7.88;;;3.38;;
74630;SDS011;63138;55.082;38.804;2022-10-16T02:43:31;7.43;;;4.50;;
74630;SDS011;63138;55.082;38.804;2022-10-16T02:45:58;11.32;;;5.35;;
74630;SDS011;63138;55.082;38.804;2022-10-16T02:48:24;8.23;;;5.03;;
74630;SDS011;63138;55.082;38.804;2022-10-16T02:50:50;9.68;;;4.80;;
74630;SDS011;63138;55.082;38.804;2022-10-16T02:53:16;7.50;;;4.90;;
74630;SDS011;63138;55.082;38.804;2022-10-16T02:55:42;9.57;;;4.60;;
74630;SDS011;63138;55.082;38.804;2022-10-16T02:58:07;10.95;;;5.20;;
74630;SDS011;63138;55.082;38.804;2022-10-16T03:00:33;8.50;;;4.20;;
74630;SDS011;63138;55.082;38.804;2022-10-16T03:02:59;15.73;;;5.97;;
74630;SDS011;63138;55.082;38.804;2022-10-16T03:05:25;14.23;;;6.30;;
74630;SDS011;63138;55.082;38.804;2022-10-16T03:07:51;16.33;;;6.80;;
74630;SDS011;63138;55.082;38.804;2022-10-16T03:10:18;13.80;;;5.32;;
74630;SDS011;63138;55.082;38.804;2022-10-16T03:12:44;16.08;;;5.28;;
74630;SDS011;63138;55.082;38.804;2022-10-16T03:15:09;11.53;;;5.10;;
74630;SDS011;63138;55.082;38.804;2022-10-16T03:17:35;22.23;;;7.72;;
74630;SDS011;63138;55.082;38.804;2022-10-16T03:20:01;18.27;;;7.60;;
74630;SDS011;63138;55.082;38.804;2022-10-16T03:22:29;25.85;;;8.50;;
74630;SDS011;63138;55.082;38.804;2022-10-16T03:24:55;24.55;;;7.40;;
74630;SDS011;63138;55.082;38.804;2022-10-16T03:27:20;17.70;;;6.33;;
74630;SDS011;63138;55.082;38.804;2022-10-16T03:29:46;17.65;;;6.68;;
74630;SDS011;63138;55.082;38.804;2022-10-16T03:32:12;12.93;;;5.63;;
74630;SDS011;63138;55.082;38.804;2022-10-16T03:34:37;11.20;;;5.40;;
74630;SDS011;63138;55.082;38.804;2022-10-16T03:37:03;10.20;;;5.47;;
74630;SDS011;63138;55.082;38.804;2022-10-16T03:39:29;9.80;;;4.53;;
74630;SDS011;63138;55.082;38.804;2022-10-16T03:41:55;10.90;;;5.73;;
74630;SDS011;63138;55.082;38.804;2022-10-16T03:44:20;9.37;;;6.00;;
74630;SDS011;63138;55.082;38.804;2022-10-16T03:46:46;9.00;;;5.10;;
74630;SDS011;63138;55.082;38.804;2022-10-16T03:49:12;12.70;;;5.27;;
74630;SDS011;63138;55.082;38.804;2022-10-16T03:51:38;9.48;;;4.88;;
74630;SDS011;63138;55.082;38.804;2022-10-16T03:54:03;9.87;;;4.60;;
74630;SDS011;63138;55.082;38.804;2022-10-16T03:56:29;7.85;;;5.05;;
74630;SDS011;63138;55.082;38.804;2022-10-16T03:58:55;9.47;;;4.27;;
74630;SDS011;63138;55.082;38.804;2022-10-16T04:01:21;7.18;;;4.25;;
74630;SDS011;63138;55.082;38.804;2022-10-16T04:03:47;8.98;;;5.25;;
74630;SDS011;63138;55.082;38.804;2022-10-16T04:06:13;10.80;;;6.23;;
74630;SDS011;63138;55.082;38.804;2022-10-16T04:08:38;12.65;;;5.85;;
74630;SDS011;63138;55.082;38.804;2022-10-16T04:11:04;15.27;;;6.47;;
74630;SDS011;63138;55.082;38.804;2022-10-16T04:13:30;19.05;;;6.55;;
74630;SDS011;63138;55.082;38.804;2022-10-16T04:15:56;20.05;;;8.55;;
74630;SDS011;63138;55.082;38.804;2022-10-16T04:18:22;19.67;;;9.27;;
74630;SDS011;63138;55.082;38.804;2022-10-16T04:20:48;24.70;;;10.27;;
74630;SDS011;63138;55.082;38.804;2022-10-16T04:23:14;25.20;;;11.52;;
74630;SDS011;63138;55.082;38.804;2022-10-16T04:25:42;13.60;;;7.53;;
74630;SDS011;63138;55.082;38.804;2022-10-16T04:28:07;18.58;;;9.05;;
74630;SDS011;63138;55.082;38.804;2022-10-16T04:30:33;10.70;;;6.23;;
74630;SDS011;63138;55.082;38.804;2022-10-16T04:32:59;13.43;;;6.50;;
74630;SDS011;63138;55.082;38.804;2022-10-16T04:35:25;10.63;;;5.55;;
74630;SDS011;63138;55.082;38.804;2022-10-16T04:37:51;7.40;;;4.67;;
74630;SDS011;63138;55.082;38.804;2022-10-16T04:40:17;12.05;;;5.43;;
74630;SDS011;63138;55.082;38.804;2022-10-16T04:42:42;7.43;;;4.93;;
74630;SDS011;63138;55.082;38.804;2022-10-16T04:45:08;11.45;;;5.32;;
74630;SDS011;63138;55.082;38.804;2022-10-16T04:47:34;11.33;;;6.27;;
74630;SDS011;63138;55.082;38.804;2022-10-16T04:50:00;8.37;;;4.40;;
74630;SDS011;63138;55.082;38.804;2022-10-16T04:52:28;8.55;;;4.07;;
74630;SDS011;63138;55.082;38.804;2022-10-16T04:54:54;7.50;;;4.68;;
74630;SDS011;63138;55.082;38.804;2022-10-16T04:57:25;7.33;;;4.60;;
74630;SDS011;63138;55.082;38.804;2022-10-16T04:59:52;11.02;;;5.40;;
74630;SDS011;63138;55.082;38.804;2022-10-16T05:02:18;7.43;;;4.95;;
74630;SDS011;63138;55.082;38.804;2022-10-16T05:04:44;9.45;;;5.07;;
74630;SDS011;63138;55.082;38.804;2022-10-16T05:07:10;8.43;;;5.40;;
74630;SDS011;63138;55.082;38.804;2022-10-16T05:09:36;11.88;;;5.60;;
74630;SDS011;63138;55.082;38.804;2022-10-16T05:12:02;9.97;;;5.03;;
74630;SDS011;63138;55.082;38.804;2022-10-16T05:14:28;11.67;;;4.90;;
74630;SDS011;63138;55.082;38.804;2022-10-16T05:16:54;11.65;;;5.20;;
74630;SDS011;63138;55.082;38.804;2022-10-16T05:19:20;8.40;;;5.18;;
74630;SDS011;63138;55.082;38.804;2022-10-16T05:21:46;11.30;;;5.10;;
74630;SDS011;63138;55.082;38.804;2022-10-16T05:24:12;11.25;;;5.22;;
74630;SDS011;63138;55.082;38.804;2022-10-16T05:26:37;10.27;;;6.37;;
74630;SDS011;63138;55.082;38.804;2022-10-16T05:29:03;6.80;;;5.95;;
74630;SDS011;63138;55.082;38.804;2022-10-16T05:31:29;10.73;;;6.47;;
74630;SDS011;63138;55.082;38.804;2022-10-16T05:34:01;11.95;;;7.35;;
74630;SDS011;63138;55.082;38.804;2022-10-16T05:36:27;11.55;;;6.50;;
74630;SDS011;63138;55.082;38.804;2022-10-16T05:38:53;9.33;;;6.13;;
74630;SDS011;63138;55.082;38.804;2022-10-16T05:41:19;8.18;;;6.40;;
74630;SDS011;63138;55.082;38.804;2022-10-16T05:43:47;7.00;;;5.72;;
74630;SDS011;63138;55.082;38.804;2022-10-16T05:46:13;9.63;;;6.20;;
74630;SDS011;63138;55.082;38.804;2022-10-16T05:48:40;8.18;;;6.13;;
74630;SDS011;63138;55.082;38.804;2022-10-16T05:51:06;9.05;;;6.72;;
74630;SDS011;63138;55.082;38.804;2022-10-16T05:53:35;8.20;;;6.07;;
74630;SDS011;63138;55.082;38.804;2022-10-16T05:56:02;9.77;;;6.55;;
74630;SDS011;63138;55.082;38.804;2022-10-16T05:58:29;9.07;;;6.30;;
74630;SDS011;63138;55.082;38.804;2022-10-16T06:00:57;8.20;;;5.80;;
74630;SDS011;63138;55.082;38.804;2022-10-16T06:03:32;9.63;;;6.05;;
74630;SDS011;63138;55.082;38.804;2022-10-16T06:05:59;10.27;;;6.10;;
74630;SDS011;63138;55.082;38.804;2022-10-16T06:08:32;6.93;;;5.72;;
74630;SDS011;63138;55.082;38.804;2022-10-16T06:11:04;8.77;;;6.72;;
74630;SDS011;63138;55.082;38.804;2022-10-16T06:13:35;7.55;;;5.45;;
74630;SDS011;63138;55.082;38.804;2022-10-16T06:16:01;9.70;;;7.33;;
74630;SDS011;63138;55.082;38.804;2022-10-16T06:18:28;9.73;;;6.57;;
74630;SDS011;63138;55.082;38.804;2022-10-16T06:20:54;9.30;;;6.45;;
74630;SDS011;63138;55.082;38.804;2022-10-16T06:23:21;5.95;;;5.35;;
74630;SDS011;63138;55.082;38.804;2022-10-16T06:25:47;8.20;;;6.13;;
74630;SDS011;63138;55.082;38.804;2022-10-16T06:28:13;10.90;;;6.43;;
74630;SDS011;63138;55.082;38.804;2022-10-16T06:30:40;7.30;;;5.47;;
74630;SDS011;63138;55.082;38.804;2022-10-16T06:33:06;9.27;;;6.13;;
74630;SDS011;63138;55.082;38.804;2022-10-16T06:35:32;6.87;;;6.00;;
74630;SDS011;63138;55.082;38.804;2022-10-16T06:37:58;8.80;;;6.07;;
74630;SDS011;63138;55.082;38.804;2022-10-16T06:40:23;7.53;;;5.40;;
74630;SDS011;63138;55.082;38.804;2022-10-16T06:42:49;6.50;;;5.50;;
74630;SDS011;63138;55.082;38.804;2022-10-16T06:45:17;7.47;;;5.20;;
74630;SDS011;63138;55.082;38.804;2022-10-16T06:47:43;8.52;;;5.55;;
74630;SDS011;63138;55.082;38.804;2022-10-16T06:50:08;8.30;;;5.20;;
74630;SDS011;63138;55.082;38.804;2022-10-16T06:52:34;7.95;;;5.75;;
74630;SDS011;63138;55.082;38.804;2022-10-16T06:55:00;6.23;;;5.30;;
74630;SDS011;63138;55.082;38.804;2022-10-16T06:57:26;7.78;;;5.43;;
74630;SDS011;63138;55.082;38.804;2022-10-16T06:59:52;8.13;;;5.90;;
74630;SDS011;63138;55.082;38.804;2022-10-16T07:02:18;5.73;;;5.03;;
74630;SDS011;63138;55.082;38.804;2022-10-16T07:04:44;8.70;;;5.93;;
74630;SDS011;63138;55.082;38.804;2022-10-16T07:07:09;11.02;;;6.13;;
74630;SDS011;63138;55.082;38.804;2022-10-16T07:09:35;7.40;;;5.63;;
74630;SDS011;63138;55.082;38.804;2022-10-16T07:12:01;8.65;;;5.70;;
74630;SDS011;63138;55.082;38.804;2022-10-16T07:14:27;7.93;;;5.50;;
74630;SDS011;63138;55.082;38.804;2022-10-16T07:16:52;8.30;;;5.20;;
74630;SDS011;63138;55.082;38.804;2022-10-16T07:19:18;6.97;;;5.10;;
74630;SDS011;63138;55.082;38.804;2022-10-16T07:21:44;8.17;;;5.63;;
74630;SDS011;63138;55.082;38.804;2022-10-16T07:24:11;7.88;;;5.22;;
74630;SDS011;63138;55.082;38.804;2022-10-16T07:26:39;9.10;;;5.80;;
74630;SDS011;63138;55.082;38.804;2022-10-16T07:29:15;8.47;;;5.80;;
74630;SDS011;63138;55.082;38.804;2022-10-16T07:31:43;7.35;;;5.47;;
74630;SDS011;63138;55.082;38.804;2022-10-16T07:34:10;6.97;;;5.35;;
74630;SDS011;63138;55.082;38.804;2022-10-16T07:36:37;7.72;;;4.80;;
74630;SDS011;63138;55.082;38.804;2022-10-16T07:39:03;9.67;;;5.67;;
74630;SDS011;63138;55.082;38.804;2022-10-16T07:41:29;8.60;;;5.38;;
74630;SDS011;63138;55.082;38.804;2022-10-16T07:43:55;9.60;;;5.75;;
74630;SDS011;63138;55.082;38.804;2022-10-16T07:46:25;7.35;;;5.35;;
74630;SDS011;63138;55.082;38.804;2022-10-16T07:48:51;7.60;;;5.68;;
74630;SDS011;63138;55.082;38.804;2022-10-16T07:51:19;7.00;;;5.77;;
74630;SDS011;63138;55.082;38.804;2022-10-16T07:53:46;13.70;;;5.95;;
74630;SDS011;63138;55.082;38.804;2022-10-16T07:56:12;8.60;;;5.50;;
74630;SDS011;63138;55.082;38.804;2022-10-16T07:58:39;7.18;;;5.88;;
74630;SDS011;63138;55.082;38.804;2022-10-16T08:01:12;9.10;;;5.90;;
74630;SDS011;63138;55.082;38.804;2022-10-16T08:03:46;8.50;;;6.25;;
74630;SDS011;63138;55.082;38.804;2022-10-16T08:06:14;6.95;;;5.50;;
74630;SDS011;63138;55.082;38.804;2022-10-16T08:08:40;8.82;;;5.30;;
74630;SDS011;63138;55.082;38.804;2022-10-16T08:11:06;8.60;;;5.00;;
74630;SDS011;63138;55.082;38.804;2022-10-16T08:13:32;7.43;;;5.10;;
74630;SDS011;63138;55.082;38.804;2022-10-16T08:15:58;5.63;;;4.65;;
74630;SDS011;63138;55.082;38.804;2022-10-16T08:18:24;8.98;;;5.10;;
74630;SDS011;63138;55.082;38.804;2022-10-16T08:20:56;7.00;;;5.67;;
74630;SDS011;63138;55.082;38.804;2022-10-16T08:23:24;6.28;;;5.30;;
74630;SDS011;63138;55.082;38.804;2022-10-16T08:25:51;11.45;;;5.78;;
74630;SDS011;63138;55.082;38.804;2022-10-16T08:28:19;7.57;;;4.93;;
74630;SDS011;63138;55.082;38.804;2022-10-16T08:30:45;9.48;;;5.28;;
74630;SDS011;63138;55.082;38.804;2022-10-16T08:33:11;8.90;;;5.10;;
74630;SDS011;63138;55.082;38.804;2022-10-16T08:35:37;7.43;;;5.38;;
74630;SDS011;63138;55.082;38.804;2022-10-16T08:38:03;5.60;;;5.00;;
74630;SDS011;63138;55.082;38.804;2022-10-16T08:40:30;8.53;;;4.80;;
74630;SDS011;63138;55.082;38.804;2022-10-16T08:51:03;11.07;;;5.28;;
74630;SDS011;63138;55.082;38.804;2022-10-16T08:53:33;7.33;;;4.57;;
74630;SDS011;63138;55.082;38.804;2022-10-16T08:56:07;7.10;;;5.10;;
74630;SDS011;63138;55.082;38.804;2022-10-16T08:58:32;6.63;;;4.38;;
74630;SDS011;63138;55.082;38.804;2022-10-16T09:01:00;6.90;;;4.67;;
74630;SDS011;63138;55.082;38.804;2022-10-16T09:11:51;7.93;;;4.60;;
74630;SDS011;63138;55.082;38.804;2022-10-16T09:14:33;5.83;;;3.80;;
74630;SDS011;63138;55.082;38.804;2022-10-16T09:17:13;5.95;;;3.47;;
74630;SDS011;63138;55.082;38.804;2022-10-16T09:22:25;8.32;;;3.55;;
74630;SDS011;63138;55.082;38.804;2022-10-16T09:24:55;4.90;;;3.35;;
74630;SDS011;63138;55.082;38.804;2022-10-16T09:27:36;6.63;;;4.00;;
74630;SDS011;63138;55.082;38.804;2022-10-16T09:30:10;5.68;;;3.63;;
74630;SDS011;63138;55.082;38.804;2022-10-16T09:32:41;5.45;;;3.58;;
74630;SDS011;63138;55.082;38.804;2022-10-16T09:35:19;6.05;;;3.42;;
74630;SDS011;63138;55.082;38.804;2022-10-16T09:37:49;5.22;;;3.85;;
74630;SDS011;63138;55.082;38.804;2022-10-16T09:40:31;6.17;;;3.77;;
74630;SDS011;63138;55.082;38.804;2022-10-16T09:45:59;5.35;;;3.55;;
74630;SDS011;63138;55.082;38.804;2022-10-16T09:48:29;9.10;;;3.83;;
74630;SDS011;63138;55.082;38.804;2022-10-16T09:51:02;4.60;;;3.55;;
74630;SDS011;63138;55.082;38.804;2022-10-16T09:53:43;5.37;;;3.63;;
74630;SDS011;63138;55.082;38.804;2022-10-16T09:56:11;6.65;;;3.75;;
74630;SDS011;63138;55.082;38.804;2022-10-16T09:58:52;7.32;;;3.55;;
74630;SDS011;63138;55.082;38.804;2022-10-16T10:01:21;7.70;;;3.70;;
74630;SDS011;63138;55.082;38.804;2022-10-16T10:03:55;6.80;;;3.20;;
74630;SDS011;63138;55.082;38.804;2022-10-16T10:06:27;5.40;;;3.40;;
74630;SDS011;63138;55.082;38.804;2022-10-16T10:09:04;5.93;;;3.47;;
74630;SDS011;63138;55.082;38.804;2022-10-16T10:11:55;5.25;;;3.40;;
74630;SDS011;63138;55.082;38.804;2022-10-16T10:17:17;4.93;;;3.30;;
74630;SDS011;63138;55.082;38.804;2022-10-16T10:19:53;5.17;;;3.37;;
74630;SDS011;63138;55.082;38.804;2022-10-16T10:22:29;7.55;;;3.28;;
74630;SDS011;63138;55.082;38.804;2022-10-16T10:33:29;8.60;;;3.27;;
74630;SDS011;63138;55.082;38.804;2022-10-16T10:36:05;5.85;;;3.03;;
74630;SDS011;63138;55.082;38.804;2022-10-16T10:46:34;6.50;;;3.30;;
74630;SDS011;63138;55.082;38.804;2022-10-16T11:02:42;5.57;;;2.90;;
74630;SDS011;63138;55.082;38.804;2022-10-16T11:11:22;7.07;;;3.08;;
74630;SDS011;63138;55.082;38.804;2022-10-16T11:16:28;5.72;;;3.83;;
74630;SDS011;63138;55.082;38.804;2022-10-16T11:21:47;6.93;;;4.13;;
74630;SDS011;63138;55.082;38.804;2022-10-16T11:24:22;7.32;;;3.60;;
74630;SDS011;63138;55.082;38.804;2022-10-16T11:26:57;10.07;;;3.50;;
74630;SDS011;63138;55.082;38.804;2022-10-16T11:29:30;6.43;;;2.75;;
74630;SDS011;63138;55.082;38.804;2022-10-16T11:32:19;5.57;;;3.08;;
74630;SDS011;63138;55.082;38.804;2022-10-16T11:34:53;6.05;;;2.90;;
74630;SDS011;63138;55.082;38.804;2022-10-16T11:37:47;6.38;;;3.10;;
74630;SDS011;63138;55.082;38.804;2022-10-16T11:42:41;6.35;;;3.00;;
74630;SDS011;63138;55.082;38.804;2022-10-16T11:50:53;7.72;;;3.28;;
74630;SDS011;63138;55.082;38.804;2022-10-16T11:56:20;6.05;;;3.28;;
74630;SDS011;63138;55.082;38.804;2022-10-16T11:59:00;5.35;;;3.30;;
74630;SDS011;63138;55.082;38.804;2022-10-16T12:09:30;4.97;;;2.75;;
74630;SDS011;63138;55.082;38.804;2022-10-16T12:11:58;7.30;;;3.08;;
74630;SDS011;63138;55.082;38.804;2022-10-16T12:14:37;4.28;;;2.88;;
74630;SDS011;63138;55.082;38.804;2022-10-16T12:19:56;7.47;;;2.77;;
74630;SDS011;63138;55.082;38.804;2022-10-16T12:22:23;6.10;;;3.60;;
74630;SDS011;63138;55.082;38.804;2022-10-16T12:24:51;5.30;;;2.72;;
74630;SDS011;63138;55.082;38.804;2022-10-16T12:27:22;4.85;;;2.63;;
74630;SDS011;63138;55.082;38.804;2022-10-16T12:30:00;7.05;;;2.80;;
74630;SDS011;63138;55.082;38.804;2022-10-16T12:35:00;5.47;;;2.35;;
74630;SDS011;63138;55.082;38.804;2022-10-16T12:37:37;7.82;;;3.45;;
74630;SDS011;63138;55.082;38.804;2022-10-16T12:43:11;12.50;;;5.82;;
74630;SDS011;63138;55.082;38.804;2022-10-16T12:45:45;8.53;;;3.73;;
74630;SDS011;63138;55.082;38.804;2022-10-16T12:48:21;5.88;;;3.10;;
74630;SDS011;63138;55.082;38.804;2022-10-16T12:50:47;5.15;;;2.50;;
74630;SDS011;63138;55.082;38.804;2022-10-16T12:53:18;4.50;;;2.90;;
74630;SDS011;63138;55.082;38.804;2022-10-16T13:09:02;7.87;;;3.30;;
74630;SDS011;63138;55.082;38.804;2022-10-16T13:17:21;7.22;;;3.47;;
74630;SDS011;63138;55.082;38.804;2022-10-16T13:20:03;5.95;;;3.30;;
74630;SDS011;63138;55.082;38.804;2022-10-16T13:25:40;5.78;;;3.58;;
74630;SDS011;63138;55.082;38.804;2022-10-16T13:28:30;6.50;;;3.63;;
74630;SDS011;63138;55.082;38.804;2022-10-16T13:30:59;6.70;;;3.05;;
74630;SDS011;63138;55.082;38.804;2022-10-16T13:35:55;6.30;;;3.60;;
74630;SDS011;63138;55.082;38.804;2022-10-16T13:38:22;9.02;;;3.47;;
74630;SDS011;63138;55.082;38.804;2022-10-16T13:40:52;7.45;;;4.15;;
74630;SDS011;63138;55.082;38.804;2022-10-16T13:43:43;6.95;;;2.60;;
74630;SDS011;63138;55.082;38.804;2022-10-16T13:46:15;7.40;;;3.72;;
74630;SDS011;63138;55.082;38.804;2022-10-16T13:48:43;5.43;;;3.37;;
74630;SDS011;63138;55.082;38.804;2022-10-16T13:51:13;5.40;;;3.30;;
74630;SDS011;63138;55.082;38.804;2022-10-16T13:53:41;6.90;;;2.90;;
74630;SDS011;63138;55.082;38.804;2022-10-16T13:56:10;7.00;;;2.90;;
74630;SDS011;63138;55.082;38.804;2022-10-16T13:58:38;7.18;;;3.53;;
74630;SDS011;63138;55.082;38.804;2022-10-16T14:01:05;6.10;;;3.40;;
74630;SDS011;63138;55.082;38.804;2022-10-16T14:03:41;8.35;;;2.90;;
74630;SDS011;63138;55.082;38.804;2022-10-16T14:06:11;10.15;;;3.10;;
74630;SDS011;63138;55.082;38.804;2022-10-16T14:08:53;8.98;;;3.53;;
74630;SDS011;63138;55.082;38.804;2022-10-16T14:11:48;6.28;;;3.55;;
74630;SDS011;63138;55.082;38.804;2022-10-16T14:14:17;8.13;;;3.63;;
74630;SDS011;63138;55.082;38.804;2022-10-16T14:16:44;8.13;;;3.60;;
74630;SDS011;63138;55.082;38.804;2022-10-16T14:19:25;6.45;;;2.95;;
74630;SDS011;63138;55.082;38.804;2022-10-16T14:21:53;6.43;;;3.60;;
74630;SDS011;63138;55.082;38.804;2022-10-16T14:24:25;5.77;;;3.60;;
74630;SDS011;63138;55.082;38.804;2022-10-16T14:26:52;5.53;;;3.15;;
74630;SDS011;63138;55.082;38.804;2022-10-16T14:29:21;5.45;;;3.45;;
74630;SDS011;63138;55.082;38.804;2022-10-16T14:31:58;5.57;;;2.47;;
74630;SDS011;63138;55.082;38.804;2022-10-16T14:34:30;5.35;;;3.28;;
74630;SDS011;63138;55.082;38.804;2022-10-16T14:39:33;6.90;;;3.17;;
74630;SDS011;63138;55.082;38.804;2022-10-16T14:42:00;8.45;;;3.17;;
74630;SDS011;63138;55.082;38.804;2022-10-16T14:44:28;10.38;;;3.95;;
74630;SDS011;63138;55.082;38.804;2022-10-16T14:46:58;8.30;;;3.70;;
74630;SDS011;63138;55.082;38.804;2022-10-16T14:49:33;8.40;;;3.97;;
74630;SDS011;63138;55.082;38.804;2022-10-16T14:51:59;7.97;;;4.00;;
74630;SDS011;63138;55.082;38.804;2022-10-16T14:54:25;7.43;;;3.42;;
74630;SDS011;63138;55.082;38.804;2022-10-16T14:59:23;9.82;;;4.78;;
74630;SDS011;63138;55.082;38.804;2022-10-16T15:01:54;9.20;;;4.53;;
74630;SDS011;63138;55.082;38.804;2022-10-16T15:04:20;10.18;;;5.10;;
74630;SDS011;63138;55.082;38.804;2022-10-16T15:06:46;8.17;;;4.90;;
74630;SDS011;63138;55.082;38.804;2022-10-16T15:09:12;7.88;;;4.80;;
74630;SDS011;63138;55.082;38.804;2022-10-16T15:11:38;10.70;;;4.70;;
74630;SDS011;63138;55.082;38.804;2022-10-16T15:14:08;10.13;;;5.00;;
74630;SDS011;63138;55.082;38.804;2022-10-16T15:16:36;11.55;;;5.20;;
74630;SDS011;63138;55.082;38.804;2022-10-16T15:19:02;7.55;;;3.47;;
74630;SDS011;63138;55.082;38.804;2022-10-16T15:21:29;10.40;;;4.70;;
74630;SDS011;63138;55.082;38.804;2022-10-16T15:23:57;9.25;;;4.68;;
74630;SDS011;63138;55.082;38.804;2022-10-16T15:26:24;8.98;;;4.40;;
74630;SDS011;63138;55.082;38.804;2022-10-16T15:28:52;8.90;;;4.35;;
74630;SDS011;63138;55.082;38.804;2022-10-16T15:31:18;9.98;;;4.93;;
74630;SDS011;63138;55.082;38.804;2022-10-16T15:33:48;7.37;;;4.50;;
74630;SDS011;63138;55.082;38.804;2022-10-16T15:36:56;9.43;;;3.95;;
74630;SDS011;63138;55.082;38.804;2022-10-16T15:39:16;8.65;;;4.50;;
74630;SDS011;63138;55.082;38.804;2022-10-16T15:41:44;14.48;;;4.85;;
74630;SDS011;63138;55.082;38.804;2022-10-16T15:44:16;7.03;;;4.45;;
74630;SDS011;63138;55.082;38.804;2022-10-16T15:46:42;15.13;;;5.03;;
74630;SDS011;63138;55.082;38.804;2022-10-16T15:49:09;10.80;;;4.68;;
74630;SDS011;63138;55.082;38.804;2022-10-16T15:51:40;7.18;;;4.00;;
74630;SDS011;63138;55.082;38.804;2022-10-16T15:54:07;7.00;;;4.03;;
74630;SDS011;63138;55.082;38.804;2022-10-16T15:56:36;7.28;;;4.03;;
74630;SDS011;63138;55.082;38.804;2022-10-16T15:59:03;8.70;;;4.50;;
74630;SDS011;63138;55.082;38.804;2022-10-16T16:01:34;9.82;;;4.78;;
74630;SDS011;63138;55.082;38.804;2022-10-16T16:04:01;6.97;;;3.72;;
74630;SDS011;63138;55.082;38.804;2022-10-16T16:06:29;7.82;;;3.92;;
74630;SDS011;63138;55.082;38.804;2022-10-16T16:08:55;7.72;;;4.32;;
74630;SDS011;63138;55.082;38.804;2022-10-16T16:11:26;6.67;;;4.03;;
74630;SDS011;63138;55.082;38.804;2022-10-16T16:13:52;11.50;;;4.38;;
74630;SDS011;63138;55.082;38.804;2022-10-16T16:16:23;8.23;;;4.22;;
74630;SDS011;63138;55.082;38.804;2022-10-16T16:18:52;8.65;;;4.10;;
74630;SDS011;63138;55.082;38.804;2022-10-16T16:21:18;9.50;;;4.22;;
74630;SDS011;63138;55.082;38.804;2022-10-16T16:23:44;8.17;;;4.50;;
74630;SDS011;63138;55.082;38.804;2022-10-16T16:26:15;7.07;;;3.88;;
74630;SDS011;63138;55.082;38.804;2022-10-16T16:28:51;6.70;;;3.53;;
74630;SDS011;63138;55.082;38.804;2022-10-16T16:31:19;9.27;;;4.28;;
74630;SDS011;63138;55.082;38.804;2022-10-16T16:33:45;6.70;;;4.22;;
74630;SDS011;63138;55.082;38.804;2022-10-16T16:36:11;9.07;;;4.40;;
74630;SDS011;63138;55.082;38.804;2022-10-16T16:38:38;12.38;;;4.78;;
74630;SDS011;63138;55.082;38.804;2022-10-16T16:41:17;7.43;;;4.57;;
74630;SDS011;63138;55.082;38.804;2022-10-16T16:43:54;6.93;;;4.43;;
74630;SDS011;63138;55.082;38.804;2022-10-16T16:46:20;7.47;;;4.50;;
74630;SDS011;63138;55.082;38.804;2022-10-16T16:48:47;6.97;;;4.43;;
74630;SDS011;63138;55.082;38.804;2022-10-16T16:51:16;8.68;;;4.93;;
74630;SDS011;63138;55.082;38.804;2022-10-16T16:53:45;9.70;;;4.88;;
74630;SDS011;63138;55.082;38.804;2022-10-16T16:56:12;12.20;;;4.95;;
74630;SDS011;63138;55.082;38.804;2022-10-16T16:58:44;8.40;;;5.55;;
74630;SDS011;63138;55.082;38.804;2022-10-16T17:01:11;7.63;;;4.60;;
74630;SDS011;63138;55.082;38.804;2022-10-16T17:03:41;8.15;;;4.85;;